Airfield :
LOGIN :

Register | Disclaimer

   EN    FR    IT 

 










Legend :    VFR   Marginal VFR   IFR   Intensive IFR   Very Intensive IFR
Visi :
Ceiling :
>= 8 km
>= 3000ft
5 to 8 km
1000 to 3000 ft
1500m to 5 km
500 to 1000 ft
800 to 1500m
200 to 500 ft
< 800m
< 200 ft
Symbols :   Thunderstorms  Fog  Heavy snow  Heavy precipitations  Wind > 20 kt
SIGMETs :     Misc.  Thunderstorms  Icing  Turbulence  Mountain Waves  Volcanic Ashes






- Airport Elevation : 29 ft
- IATA code : SVG


ENZV - Sola

CURRENT METAR :
  • 272220Z 14012KT 9999 SHSN FEW008 SCT020 BKN050 01/M01 Q0996

EXPIRED METARs :
  • 272150Z 14012KT 9999 FEW049 BKN059 01/M03 Q0996
  • 272120Z 14010KT 9999 FEW049 BKN059 01/M03 Q0996
  • 272050Z 14012KT 9999 FEW045 01/M03 Q0996
  • 272020Z 14010KT 9999 FEW025 SCT050 01/M03 Q0995 TEMPO 1500 SHSN VV009
  • 271950Z 14011KT 9999 FEW025 SCT040 01/M03 Q0995 NOSIG

TAF ENZV
Valid from the 27 at 18:00 until the 28 at 18:00 UTC


2718/2818 15008KT 9999 FEW015CB BKN020
TEMPO 2718/2806 1500 SHSN VV008
BECMG 2805/2808 26010KT SCT020
BECMG 2813/2816 15008KT



MET'MAP, your aeronautical weather chart ! - Copyright ORBIFLY December 2007 - Disclaimer

ORBIFLY MET'MAP TEAM :

Programming & Development : Alexandra Zaïnal
Concept & original design : Baudouin d'Aumeries
Assistance for programming : Marc-Olivier Méhu
Technical & hardware support : Manuel Goepfert

Contact : metmap@orbifly.com




SOURCES & CREDITS :

   NOAA